createdAt,value
2017-11-20T18:33:31.134Z,87.96
2017-11-20T18:34:41.632Z,88.1
2017-11-20T18:35:51.702Z,87.96
2017-11-20T18:37:02.059Z,88.06
2017-11-20T18:38:12.270Z,87.96
2017-11-20T18:39:22.038Z,87.96
2017-11-20T18:40:32.473Z,88.06
2017-11-20T18:41:42.845Z,87.77
2017-11-20T18:42:53.250Z,87.77
2017-11-20T18:44:03.625Z,87.87
2017-11-20T18:45:14.179Z,87.87
2017-11-20T18:46:24.566Z,87.68
2017-11-20T18:47:34.642Z,87.87
2017-11-20T18:48:44.968Z,87.87
2017-11-20T18:49:54.923Z,87.87
2017-11-20T18:51:05.378Z,87.96
2017-11-20T18:52:47.369Z,88.15
2017-11-20T18:53:57.745Z,88.15
2017-11-20T18:55:08.170Z,88.15
2017-11-20T18:56:18.644Z,88.15
2017-11-20T18:57:29.090Z,87.77
2017-11-20T18:58:39.482Z,88.15
2017-11-20T18:59:49.825Z,88.06
2017-11-20T19:01:00.284Z,88.43
2017-11-20T19:02:11.329Z,88.53
2017-11-20T19:03:21.687Z,88.34
2017-11-20T19:04:32.158Z,88.43
2017-11-20T19:05:42.189Z,88.34
2017-11-20T19:06:52.148Z,88.34
2017-11-20T19:08:02.252Z,89.1
2017-11-20T19:09:12.637Z,88.53
2017-11-20T19:10:23.182Z,88.34
2017-11-20T19:11:33.572Z,88.53
2017-11-20T19:12:43.668Z,88.34
2017-11-20T19:13:54.094Z,89.1
2017-11-20T19:15:04.219Z,88.43
2017-11-20T19:16:14.315Z,88.34
2017-11-20T19:17:24.217Z,88.15
2017-11-20T19:18:34.307Z,88.53
2017-11-20T19:19:44.717Z,88.91
2017-11-20T19:20:55.093Z,88.62
2017-11-20T19:22:05.444Z,89.29
2017-11-20T19:23:14.871Z,88.62
2017-11-20T19:24:25.236Z,89.39
2017-11-20T19:25:35.622Z,89.2
2017-11-20T19:26:45.464Z,88.81
2017-11-20T19:27:55.853Z,88.81
2017-11-20T19:29:06.295Z,89
2017-11-20T19:30:15.988Z,89.29
2017-11-20T19:31:26.380Z,89.2
2017-11-20T19:32:36.908Z,89.39
2017-11-20T19:33:46.996Z,89.1
2017-11-20T19:34:57.401Z,89.1
2017-11-20T19:36:07.926Z,89.48
2017-11-20T19:37:18.189Z,89.2
2017-11-20T19:38:28.552Z,89.48
2017-11-20T19:39:38.978Z,89.29
2017-11-20T19:40:49.366Z,89.58
2017-11-20T19:41:59.747Z,89.29
2017-11-20T19:43:10.338Z,89.48
2017-11-20T19:44:20.723Z,89.29
2017-11-20T19:45:31.225Z,89.29
2017-11-20T19:46:41.611Z,90.05
2017-11-20T19:47:52.188Z,89.67
2017-11-20T19:49:02.583Z,89.86
2017-11-20T19:50:13.099Z,89.76
2017-11-20T19:51:23.376Z,90.05
2017-11-20T19:52:33.819Z,90.14
2017-11-20T19:53:44.293Z,89.95
2017-11-20T19:54:54.669Z,90.05
2017-11-20T19:56:04.827Z,89.67
2017-11-20T19:57:15.351Z,89.86
2017-11-20T19:58:25.671Z,89.76
2017-11-20T19:59:36.026Z,89.76
2017-11-20T20:00:46.697Z,89.67
2017-11-20T20:01:56.488Z,89.95
2017-11-20T20:03:06.625Z,89.95
2017-11-20T20:04:16.384Z,89.95
2017-11-20T20:05:26.980Z,89.76
2017-11-20T20:06:37.341Z,89.95
2017-11-20T20:07:47.827Z,89.95
2017-11-20T20:08:58.218Z,89.86
2017-11-20T20:10:08.868Z,89.86
2017-11-20T20:11:19.288Z,89.67
2017-11-20T20:12:29.691Z,89.95
2017-11-20T20:13:40.045Z,89.95
2017-11-20T20:14:50.426Z,89.67
2017-11-20T20:16:00.946Z,90.24
2017-11-20T20:17:11.342Z,90.14
2017-11-20T20:18:21.657Z,89.91
2017-11-20T20:19:32.158Z,89.86
2017-11-20T20:20:42.281Z,89.86
2017-11-20T20:21:52.722Z,89.67
2017-11-20T20:23:03.223Z,90.24
2017-11-20T20:24:13.654Z,90.14
2017-11-20T20:25:24.165Z,90.14
2017-11-20T20:26:34.399Z,90.14
2017-11-20T20:27:44.853Z,90.24
2017-11-20T20:28:54.911Z,90.24
2017-11-20T20:30:05.377Z,90.14
2017-11-20T20:31:15.372Z,90.14
2017-11-20T20:32:25.844Z,90.33
2017-11-20T20:33:36.300Z,90.14
2017-11-20T20:34:46.685Z,90.33
2017-11-20T20:35:57.170Z,90.05
2017-11-20T20:37:07.641Z,90.24
2017-11-20T20:38:18.121Z,90.19
2017-11-20T20:39:28.498Z,90.05
2017-11-20T20:40:38.870Z,90.1
2017-11-20T20:41:49.533Z,89.81
2017-11-20T20:42:59.988Z,90.1
2017-11-20T20:44:10.532Z,90.38
2017-11-20T20:45:20.894Z,90.48
2017-11-20T20:46:31.356Z,90.19
2017-11-20T20:47:41.714Z,90.29
2017-11-20T20:48:52.140Z,90.19
2017-11-20T20:50:02.560Z,90.67
2017-11-20T20:51:12.957Z,90
2017-11-20T20:52:23.457Z,90.76
2017-11-20T20:53:33.875Z,90.1
2017-11-20T20:54:44.576Z,90.48
2017-11-20T20:55:54.723Z,90.57
2017-11-20T20:57:05.128Z,90.86
2017-11-20T20:58:15.218Z,90.05
2017-11-20T20:59:25.493Z,90.1
2017-11-20T21:00:35.519Z,90.24
2017-11-20T21:01:45.971Z,90
2017-11-20T21:02:56.332Z,90.29
2017-11-20T21:04:06.826Z,90.1
2017-11-20T21:05:16.665Z,90.38
2017-11-20T21:06:27.144Z,90
2017-11-20T21:07:37.582Z,90.86
2017-11-20T21:08:48.006Z,90.29
2017-11-20T21:09:57.796Z,90.1
2017-11-20T21:11:08.198Z,90.67
2017-11-20T21:12:18.522Z,90.57
2017-11-20T21:13:28.881Z,90.95
2017-11-20T21:14:39.344Z,90.67
2017-11-20T21:15:49.583Z,90.57
2017-11-20T21:16:59.913Z,90.43
2017-11-20T21:18:10.333Z,90.24
2017-11-20T21:19:20.446Z,90.38
2017-11-20T21:20:30.494Z,90
2017-11-20T21:21:40.858Z,90.1
2017-11-20T21:22:51.366Z,90.1
2017-11-20T21:24:01.465Z,90.67
2017-11-20T21:25:11.788Z,90.76
2017-11-20T21:26:21.909Z,90.76
2017-11-20T21:27:32.179Z,91.05
2017-11-20T21:28:42.520Z,90.76
2017-11-20T21:29:52.318Z,90.76
2017-11-20T21:31:02.695Z,90.76
2017-11-20T21:32:13.068Z,90.67
2017-11-20T21:33:23.400Z,91.33
2017-11-20T21:34:33.748Z,91.14
2017-11-20T21:35:43.873Z,90.95
2017-11-20T21:36:54.571Z,90.95
2017-11-20T21:38:04.788Z,90.95
2017-11-20T21:39:15.251Z,91.14
2017-11-20T21:40:25.639Z,91.14
2017-11-20T21:41:35.506Z,90.67
2017-11-20T21:42:46.142Z,90.67
2017-11-20T21:43:56.629Z,91.14
2017-11-20T21:45:06.985Z,91.05
2017-11-20T21:46:17.376Z,90.86
2017-11-20T21:47:27.726Z,91.24
2017-11-20T21:48:38.077Z,91.14
2017-11-20T21:49:48.263Z,91.24
2017-11-20T21:50:58.327Z,90.95
2017-11-20T21:52:08.304Z,91.14
2017-11-20T21:53:18.353Z,90.86
2017-11-20T21:54:28.446Z,90.9
2017-11-20T21:55:38.551Z,91.28
2017-11-20T21:56:48.909Z,91.19
2017-11-20T21:57:59.245Z,91.28
2017-11-20T21:59:09.373Z,91.28
2017-11-20T22:00:19.919Z,91.09
2017-11-20T22:01:29.921Z,91.09
2017-11-20T22:02:40.254Z,91.14
2017-11-20T22:03:50.645Z,91.19
2017-11-20T22:05:01.039Z,91.19
2017-11-20T22:06:11.438Z,90.95
2017-11-20T22:07:21.769Z,91.09
2017-11-20T22:08:31.847Z,90.67
2017-11-20T22:09:42.211Z,91.33
2017-11-20T22:10:52.195Z,90.67
2017-11-20T22:12:02.540Z,90.95
2017-11-20T22:13:12.477Z,91.05
2017-11-20T22:14:22.790Z,90.86
2017-11-20T22:15:33.030Z,90.95
2017-11-20T22:16:43.411Z,90.95
2017-11-20T22:17:53.763Z,90.95
2017-11-20T22:19:04.044Z,91.05
2017-11-20T22:20:14.381Z,91.33
2017-11-20T22:21:24.649Z,91.14
2017-11-20T22:23:06.846Z,91.14
2017-11-20T22:24:16.982Z,91.05
2017-11-20T22:25:27.527Z,91.14
2017-11-20T22:26:37.924Z,90.76
2017-11-20T22:27:47.930Z,90.67
2017-11-20T22:28:58.413Z,90.86
2017-11-20T22:30:08.744Z,90.95
2017-11-20T22:31:19.014Z,91.14
2017-11-20T22:32:29.075Z,91.14
2017-11-20T22:33:39.453Z,90.95
2017-11-20T22:34:49.775Z,90.95
2017-11-20T22:35:59.785Z,91.05
2017-11-20T22:37:10.046Z,91.61
2017-11-20T22:38:20.141Z,91.42
2017-11-20T22:39:30.454Z,91.99
2017-11-20T22:40:40.667Z,91.61
2017-11-20T22:41:50.953Z,91.42
2017-11-20T22:43:00.949Z,91.61
2017-11-20T22:44:11.222Z,91.61
2017-11-20T22:45:21.242Z,91.8
2017-11-20T22:46:31.650Z,91.8
2017-11-20T22:47:42.004Z,91.71
2017-11-20T22:48:52.307Z,91.52
2017-11-20T22:50:02.605Z,91.8
2017-11-20T22:51:12.618Z,91.61
2017-11-20T22:52:22.897Z,91.61
2017-11-20T22:53:32.941Z,91.61
2017-11-20T22:54:42.668Z,91.61
2017-11-20T22:55:52.959Z,91.66
2017-11-20T22:57:03.307Z,91.94
2017-11-20T22:58:13.606Z,91.85
2017-11-20T22:59:24.031Z,91.66
2017-11-20T23:00:34.349Z,91.47
2017-11-20T23:01:44.625Z,91.66
2017-11-20T23:02:54.890Z,91.75
2017-11-20T23:04:04.925Z,91
2017-11-20T23:05:15.260Z,91.09
2017-11-20T23:06:25.543Z,90.9
2017-11-20T23:07:35.851Z,91.66
2017-11-20T23:08:46.387Z,91
2017-11-20T23:09:56.886Z,91
2017-11-20T23:11:07.344Z,91.75
2017-11-20T23:12:17.666Z,91
2017-11-20T23:13:28.020Z,91.09
2017-11-20T23:14:38.069Z,91.19
2017-11-20T23:15:48.054Z,91.19
2017-11-20T23:16:58.430Z,91.66
2017-11-20T23:18:08.710Z,91.19
2017-11-20T23:19:19.062Z,91.09
2017-11-20T23:20:29.389Z,90.9
2017-11-20T23:21:39.900Z,91.85
2017-11-20T23:22:50.200Z,91.75
2017-11-20T23:24:00.225Z,91.09
2017-11-20T23:25:10.527Z,91.19
2017-11-20T23:26:20.521Z,91
2017-11-20T23:27:30.846Z,91.38
2017-11-20T23:28:40.873Z,91.66
2017-11-20T23:29:51.168Z,91.47
2017-11-20T23:31:33.434Z,91.66
2017-11-20T23:32:43.693Z,91.52
2017-11-20T23:33:54.007Z,91.42
2017-11-20T23:35:03.919Z,91.66
2017-11-20T23:36:14.202Z,91.61
2017-11-20T23:37:24.472Z,91.61
2017-11-20T23:38:34.733Z,91.71
2017-11-20T23:39:45.017Z,91.42
2017-11-20T23:40:55.479Z,91.47
2017-11-20T23:42:05.778Z,91.52
2017-11-20T23:43:16.085Z,91.61
2017-11-20T23:44:26.099Z,91.42
2017-11-20T23:45:36.410Z,91.99
2017-11-20T23:46:46.713Z,91.9
2017-11-20T23:47:56.991Z,91.99
2017-11-20T23:49:07.297Z,91.61
2017-11-20T23:50:17.365Z,92.09
2017-11-20T23:51:27.684Z,92.57
2017-11-20T23:52:37.946Z,92.18
2017-11-20T23:53:48.205Z,92.28
2017-11-20T23:54:58.489Z,92.38
2017-11-20T23:56:08.810Z,92.18
2017-11-20T23:57:19.153Z,92.28
2017-11-20T23:58:29.491Z,92.38
2017-11-20T23:59:39.774Z,92.38
